Allport, Arkansas
Current Conditions -  °F | °C
As of 8:15 AM on Monday 24 Nov 2014 (Local Time) from KSGT Reporting Station
Clear Clear  
Wind Chill:   Ceiling: Unl
Heat Index:   Visibility: 10mi
Dew Point:   Wind: 14mph
Humidity: 66%   Direction: 260°W
Pressure: 29.88"   Gusts: NA
Location:  34.5894°N, 91.9107°W
Report Text: KSGT 241415Z AUTO 26012KT 10SM CLR 09/03 A2988 RMK AO1
Loading
Personal Weather Stations






























Interactive Weather Map New forecast layout! Learn more

10-Day Weather Forecast

Advertisements
Track Severe Weather on mobile